sensor_id;sensor_type;location;lat;lon;timestamp;P1;durP1;ratioP1;P2;durP2;ratioP2
79403;SDS011;68858;48.642;9.142;2023-07-20T00:02:12;4.03;;;2.47;;
79403;SDS011;68858;48.642;9.142;2023-07-20T00:04:38;4.23;;;2.57;;
79403;SDS011;68858;48.642;9.142;2023-07-20T00:07:03;3.87;;;2.20;;
79403;SDS011;68858;48.642;9.142;2023-07-20T00:09:29;2.47;;;2.23;;
79403;SDS011;68858;48.642;9.142;2023-07-20T00:11:54;3.73;;;2.43;;
79403;SDS011;68858;48.642;9.142;2023-07-20T00:14:20;7.50;;;2.40;;
79403;SDS011;68858;48.642;9.142;2023-07-20T00:16:45;5.37;;;2.37;;
79403;SDS011;68858;48.642;9.142;2023-07-20T00:19:11;2.47;;;2.27;;
79403;SDS011;68858;48.642;9.142;2023-07-20T00:21:37;4.83;;;2.60;;
79403;SDS011;68858;48.642;9.142;2023-07-20T00:24:08;2.83;;;2.40;;
79403;SDS011;68858;48.642;9.142;2023-07-20T00:26:34;5.30;;;2.57;;
79403;SDS011;68858;48.642;9.142;2023-07-20T00:28:59;3.03;;;2.60;;
79403;SDS011;68858;48.642;9.142;2023-07-20T00:31:24;2.53;;;2.27;;
79403;SDS011;68858;48.642;9.142;2023-07-20T00:33:50;4.87;;;2.70;;
79403;SDS011;68858;48.642;9.142;2023-07-20T00:36:15;3.40;;;2.30;;
79403;SDS011;68858;48.642;9.142;2023-07-20T00:38:41;3.77;;;2.60;;
79403;SDS011;68858;48.642;9.142;2023-07-20T00:41:07;3.37;;;2.60;;
79403;SDS011;68858;48.642;9.142;2023-07-20T00:43:32;4.10;;;2.47;;
79403;SDS011;68858;48.642;9.142;2023-07-20T00:45:58;3.90;;;2.40;;
79403;SDS011;68858;48.642;9.142;2023-07-20T00:48:23;5.17;;;2.30;;
79403;SDS011;68858;48.642;9.142;2023-07-20T00:50:48;3.10;;;2.53;;
79403;SDS011;68858;48.642;9.142;2023-07-20T00:53:14;5.90;;;2.83;;
79403;SDS011;68858;48.642;9.142;2023-07-20T00:55:40;4.93;;;2.67;;
79403;SDS011;68858;48.642;9.142;2023-07-20T00:58:05;3.40;;;2.47;;
79403;SDS011;68858;48.642;9.142;2023-07-20T01:00:30;3.23;;;2.37;;
79403;SDS011;68858;48.642;9.142;2023-07-20T01:02:56;3.10;;;2.50;;
79403;SDS011;68858;48.642;9.142;2023-07-20T01:05:21;3.03;;;2.53;;
79403;SDS011;68858;48.642;9.142;2023-07-20T01:10:35;3.03;;;2.60;;
79403;SDS011;68858;48.642;9.142;2023-07-20T01:13:04;3.10;;;2.70;;
79403;SDS011;68858;48.642;9.142;2023-07-20T01:15:33;3.93;;;2.90;;
79403;SDS011;68858;48.642;9.142;2023-07-20T01:17:59;4.93;;;2.87;;
79403;SDS011;68858;48.642;9.142;2023-07-20T01:20:27;3.00;;;2.43;;
79403;SDS011;68858;48.642;9.142;2023-07-20T01:29:08;4.43;;;2.60;;
79403;SDS011;68858;48.642;9.142;2023-07-20T01:31:40;3.33;;;2.83;;
79403;SDS011;68858;48.642;9.142;2023-07-20T01:34:07;3.20;;;2.43;;
79403;SDS011;68858;48.642;9.142;2023-07-20T01:36:34;3.47;;;2.60;;
79403;SDS011;68858;48.642;9.142;2023-07-20T01:39:00;5.23;;;2.93;;
79403;SDS011;68858;48.642;9.142;2023-07-20T01:41:26;3.17;;;2.60;;
79403;SDS011;68858;48.642;9.142;2023-07-20T01:43:57;2.90;;;2.63;;
79403;SDS011;68858;48.642;9.142;2023-07-20T01:46:23;3.00;;;2.70;;
79403;SDS011;68858;48.642;9.142;2023-07-20T01:48:48;3.73;;;2.73;;
79403;SDS011;68858;48.642;9.142;2023-07-20T01:51:15;3.07;;;2.63;;
79403;SDS011;68858;48.642;9.142;2023-07-20T01:53:42;5.60;;;2.80;;
79403;SDS011;68858;48.642;9.142;2023-07-20T01:56:08;3.07;;;2.80;;
79403;SDS011;68858;48.642;9.142;2023-07-20T01:58:36;5.50;;;2.90;;
79403;SDS011;68858;48.642;9.142;2023-07-20T02:01:01;3.40;;;2.87;;
79403;SDS011;68858;48.642;9.142;2023-07-20T02:03:26;4.53;;;3.10;;
79403;SDS011;68858;48.642;9.142;2023-07-20T02:05:52;5.23;;;3.73;;
79403;SDS011;68858;48.642;9.142;2023-07-20T02:08:17;4.83;;;3.50;;
79403;SDS011;68858;48.642;9.142;2023-07-20T02:10:45;5.27;;;3.27;;
79403;SDS011;68858;48.642;9.142;2023-07-20T02:13:11;3.90;;;3.10;;
79403;SDS011;68858;48.642;9.142;2023-07-20T02:15:37;3.80;;;3.10;;
79403;SDS011;68858;48.642;9.142;2023-07-20T02:18:02;3.20;;;2.90;;
79403;SDS011;68858;48.642;9.142;2023-07-20T02:20:28;2.90;;;2.60;;
79403;SDS011;68858;48.642;9.142;2023-07-20T02:22:54;3.80;;;2.80;;
79403;SDS011;68858;48.642;9.142;2023-07-20T02:25:19;3.00;;;2.80;;
79403;SDS011;68858;48.642;9.142;2023-07-20T02:27:45;4.77;;;2.70;;
79403;SDS011;68858;48.642;9.142;2023-07-20T02:30:10;3.20;;;2.83;;
79403;SDS011;68858;48.642;9.142;2023-07-20T02:32:36;4.97;;;3.23;;
79403;SDS011;68858;48.642;9.142;2023-07-20T02:35:01;3.80;;;3.20;;
79403;SDS011;68858;48.642;9.142;2023-07-20T02:37:28;4.23;;;3.03;;
79403;SDS011;68858;48.642;9.142;2023-07-20T02:39:54;3.20;;;2.70;;
79403;SDS011;68858;48.642;9.142;2023-07-20T02:42:20;4.07;;;3.10;;
79403;SDS011;68858;48.642;9.142;2023-07-20T02:44:47;3.50;;;2.90;;
79403;SDS011;68858;48.642;9.142;2023-07-20T02:47:13;4.20;;;2.60;;
79403;SDS011;68858;48.642;9.142;2023-07-20T02:49:38;4.00;;;3.20;;
79403;SDS011;68858;48.642;9.142;2023-07-20T02:52:04;3.93;;;2.93;;
79403;SDS011;68858;48.642;9.142;2023-07-20T02:54:29;3.70;;;2.67;;
79403;SDS011;68858;48.642;9.142;2023-07-20T02:56:55;3.87;;;2.90;;
79403;SDS011;68858;48.642;9.142;2023-07-20T02:59:20;4.60;;;2.97;;
79403;SDS011;68858;48.642;9.142;2023-07-20T03:01:46;3.77;;;2.70;;
79403;SDS011;68858;48.642;9.142;2023-07-20T03:04:11;5.37;;;3.00;;
79403;SDS011;68858;48.642;9.142;2023-07-20T03:06:36;3.97;;;3.20;;
79403;SDS011;68858;48.642;9.142;2023-07-20T03:09:02;3.90;;;3.00;;
79403;SDS011;68858;48.642;9.142;2023-07-20T03:11:28;4.33;;;2.83;;
79403;SDS011;68858;48.642;9.142;2023-07-20T03:13:54;4.97;;;3.00;;
79403;SDS011;68858;48.642;9.142;2023-07-20T03:16:19;5.17;;;2.83;;
79403;SDS011;68858;48.642;9.142;2023-07-20T03:18:45;3.80;;;2.90;;
79403;SDS011;68858;48.642;9.142;2023-07-20T03:21:11;2.90;;;2.60;;
79403;SDS011;68858;48.642;9.142;2023-07-20T03:23:37;3.47;;;2.87;;
79403;SDS011;68858;48.642;9.142;2023-07-20T03:26:02;3.73;;;2.67;;
79403;SDS011;68858;48.642;9.142;2023-07-20T03:28:27;5.00;;;3.20;;
79403;SDS011;68858;48.642;9.142;2023-07-20T03:30:53;4.40;;;2.90;;
79403;SDS011;68858;48.642;9.142;2023-07-20T03:33:20;4.53;;;2.77;;
79403;SDS011;68858;48.642;9.142;2023-07-20T03:35:47;3.77;;;3.03;;
79403;SDS011;68858;48.642;9.142;2023-07-20T03:38:12;4.27;;;2.87;;
79403;SDS011;68858;48.642;9.142;2023-07-20T03:40:37;2.97;;;2.77;;
79403;SDS011;68858;48.642;9.142;2023-07-20T03:43:03;3.57;;;2.90;;
79403;SDS011;68858;48.642;9.142;2023-07-20T03:45:28;4.50;;;3.27;;
79403;SDS011;68858;48.642;9.142;2023-07-20T03:47:53;4.47;;;3.07;;
79403;SDS011;68858;48.642;9.142;2023-07-20T03:50:18;3.80;;;2.90;;
79403;SDS011;68858;48.642;9.142;2023-07-20T03:52:44;5.97;;;3.40;;
79403;SDS011;68858;48.642;9.142;2023-07-20T03:55:09;3.50;;;3.20;;
79403;SDS011;68858;48.642;9.142;2023-07-20T03:57:35;3.83;;;3.43;;
79403;SDS011;68858;48.642;9.142;2023-07-20T04:00:00;3.93;;;3.10;;
79403;SDS011;68858;48.642;9.142;2023-07-20T04:02:26;3.60;;;3.20;;
79403;SDS011;68858;48.642;9.142;2023-07-20T04:04:51;4.87;;;3.40;;
79403;SDS011;68858;48.642;9.142;2023-07-20T04:07:16;4.23;;;3.53;;
79403;SDS011;68858;48.642;9.142;2023-07-20T04:09:42;3.97;;;3.57;;
79403;SDS011;68858;48.642;9.142;2023-07-20T04:12:07;3.67;;;3.37;;
79403;SDS011;68858;48.642;9.142;2023-07-20T04:14:32;4.60;;;3.13;;
79403;SDS011;68858;48.642;9.142;2023-07-20T04:16:58;4.40;;;3.17;;
79403;SDS011;68858;48.642;9.142;2023-07-20T04:19:25;3.80;;;3.40;;
79403;SDS011;68858;48.642;9.142;2023-07-20T04:21:50;4.37;;;3.63;;
79403;SDS011;68858;48.642;9.142;2023-07-20T04:24:16;5.33;;;3.77;;
79403;SDS011;68858;48.642;9.142;2023-07-20T04:26:41;3.63;;;3.33;;
79403;SDS011;68858;48.642;9.142;2023-07-20T04:29:07;3.97;;;3.33;;
79403;SDS011;68858;48.642;9.142;2023-07-20T04:31:32;3.57;;;3.27;;
79403;SDS011;68858;48.642;9.142;2023-07-20T04:33:58;4.27;;;3.37;;
79403;SDS011;68858;48.642;9.142;2023-07-20T04:36:23;4.97;;;3.57;;
79403;SDS011;68858;48.642;9.142;2023-07-20T04:38:48;4.10;;;3.30;;
79403;SDS011;68858;48.642;9.142;2023-07-20T04:41:14;3.40;;;3.10;;
79403;SDS011;68858;48.642;9.142;2023-07-20T04:43:43;4.60;;;3.30;;
79403;SDS011;68858;48.642;9.142;2023-07-20T04:46:09;3.33;;;3.10;;
79403;SDS011;68858;48.642;9.142;2023-07-20T04:48:37;3.40;;;2.90;;
79403;SDS011;68858;48.642;9.142;2023-07-20T04:51:02;2.97;;;2.77;;
79403;SDS011;68858;48.642;9.142;2023-07-20T04:53:28;5.00;;;2.93;;
79403;SDS011;68858;48.642;9.142;2023-07-20T04:55:53;3.70;;;3.20;;
79403;SDS011;68858;48.642;9.142;2023-07-20T04:58:19;6.27;;;3.03;;
79403;SDS011;68858;48.642;9.142;2023-07-20T05:00:46;3.97;;;2.93;;
79403;SDS011;68858;48.642;9.142;2023-07-20T05:03:12;3.53;;;3.07;;
79403;SDS011;68858;48.642;9.142;2023-07-20T05:05:38;3.67;;;2.90;;
79403;SDS011;68858;48.642;9.142;2023-07-20T05:08:06;3.30;;;3.00;;
79403;SDS011;68858;48.642;9.142;2023-07-20T05:10:31;4.67;;;3.03;;
79403;SDS011;68858;48.642;9.142;2023-07-20T05:12:57;3.20;;;2.90;;
79403;SDS011;68858;48.642;9.142;2023-07-20T05:15:23;3.73;;;2.80;;
79403;SDS011;68858;48.642;9.142;2023-07-20T05:17:49;3.63;;;2.97;;
79403;SDS011;68858;48.642;9.142;2023-07-20T05:20:15;4.67;;;2.80;;
79403;SDS011;68858;48.642;9.142;2023-07-20T05:22:42;5.57;;;3.10;;
79403;SDS011;68858;48.642;9.142;2023-07-20T05:25:08;3.20;;;2.70;;
79403;SDS011;68858;48.642;9.142;2023-07-20T05:27:35;3.20;;;2.53;;
79403;SDS011;68858;48.642;9.142;2023-07-20T05:30:01;3.63;;;2.70;;
79403;SDS011;68858;48.642;9.142;2023-07-20T05:32:27;6.10;;;3.60;;
79403;SDS011;68858;48.642;9.142;2023-07-20T05:34:53;3.37;;;2.90;;
79403;SDS011;68858;48.642;9.142;2023-07-20T05:37:19;3.30;;;2.80;;
79403;SDS011;68858;48.642;9.142;2023-07-20T05:39:44;3.67;;;2.83;;
79403;SDS011;68858;48.642;9.142;2023-07-20T05:42:09;3.83;;;2.50;;
79403;SDS011;68858;48.642;9.142;2023-07-20T05:44:35;5.27;;;2.63;;
79403;SDS011;68858;48.642;9.142;2023-07-20T05:47:00;6.17;;;2.97;;
79403;SDS011;68858;48.642;9.142;2023-07-20T05:49:27;3.97;;;2.80;;
79403;SDS011;68858;48.642;9.142;2023-07-20T05:51:52;3.70;;;2.47;;
79403;SDS011;68858;48.642;9.142;2023-07-20T05:54:18;4.20;;;2.43;;
79403;SDS011;68858;48.642;9.142;2023-07-20T05:56:45;6.00;;;2.70;;
79403;SDS011;68858;48.642;9.142;2023-07-20T05:59:10;3.50;;;2.83;;
79403;SDS011;68858;48.642;9.142;2023-07-20T06:01:36;3.90;;;2.80;;
79403;SDS011;68858;48.642;9.142;2023-07-20T06:04:01;4.23;;;2.70;;
79403;SDS011;68858;48.642;9.142;2023-07-20T06:06:28;5.23;;;3.00;;
79403;SDS011;68858;48.642;9.142;2023-07-20T06:08:54;4.27;;;2.70;;
79403;SDS011;68858;48.642;9.142;2023-07-20T06:11:19;4.27;;;2.70;;
79403;SDS011;68858;48.642;9.142;2023-07-20T06:13:45;3.30;;;2.40;;
79403;SDS011;68858;48.642;9.142;2023-07-20T06:16:10;3.83;;;2.70;;
79403;SDS011;68858;48.642;9.142;2023-07-20T06:18:36;3.30;;;2.80;;
79403;SDS011;68858;48.642;9.142;2023-07-20T06:21:01;3.57;;;2.50;;
79403;SDS011;68858;48.642;9.142;2023-07-20T06:23:26;4.30;;;2.70;;
79403;SDS011;68858;48.642;9.142;2023-07-20T06:25:52;5.47;;;2.90;;
79403;SDS011;68858;48.642;9.142;2023-07-20T06:28:17;4.63;;;2.80;;
79403;SDS011;68858;48.642;9.142;2023-07-20T06:30:43;3.17;;;2.60;;
79403;SDS011;68858;48.642;9.142;2023-07-20T06:33:08;4.63;;;2.77;;
79403;SDS011;68858;48.642;9.142;2023-07-20T06:35:34;4.13;;;2.20;;
79403;SDS011;68858;48.642;9.142;2023-07-20T06:37:59;3.80;;;2.30;;
79403;SDS011;68858;48.642;9.142;2023-07-20T06:40:25;4.63;;;2.43;;
79403;SDS011;68858;48.642;9.142;2023-07-20T06:42:50;4.83;;;2.77;;
79403;SDS011;68858;48.642;9.142;2023-07-20T06:45:16;3.27;;;2.70;;
79403;SDS011;68858;48.642;9.142;2023-07-20T06:47:41;4.93;;;2.30;;
79403;SDS011;68858;48.642;9.142;2023-07-20T06:50:07;2.60;;;2.20;;
79403;SDS011;68858;48.642;9.142;2023-07-20T06:52:33;3.80;;;2.30;;
79403;SDS011;68858;48.642;9.142;2023-07-20T06:54:58;4.70;;;2.70;;
79403;SDS011;68858;48.642;9.142;2023-07-20T06:57:24;4.10;;;2.50;;
79403;SDS011;68858;48.642;9.142;2023-07-20T06:59:50;3.53;;;2.20;;
79403;SDS011;68858;48.642;9.142;2023-07-20T07:02:15;5.57;;;2.43;;
79403;SDS011;68858;48.642;9.142;2023-07-20T07:04:41;4.73;;;2.27;;
79403;SDS011;68858;48.642;9.142;2023-07-20T07:07:07;4.33;;;2.40;;
79403;SDS011;68858;48.642;9.142;2023-07-20T07:09:32;3.80;;;2.13;;
79403;SDS011;68858;48.642;9.142;2023-07-20T07:11:57;4.33;;;2.63;;
79403;SDS011;68858;48.642;9.142;2023-07-20T07:14:23;4.50;;;2.50;;
79403;SDS011;68858;48.642;9.142;2023-07-20T07:16:48;2.63;;;2.10;;
79403;SDS011;68858;48.642;9.142;2023-07-20T07:19:13;3.70;;;2.40;;
79403;SDS011;68858;48.642;9.142;2023-07-20T07:21:39;6.03;;;2.43;;
79403;SDS011;68858;48.642;9.142;2023-07-20T07:24:04;2.33;;;2.10;;
79403;SDS011;68858;48.642;9.142;2023-07-20T07:26:32;3.97;;;2.70;;
79403;SDS011;68858;48.642;9.142;2023-07-20T07:28:57;3.00;;;2.40;;
79403;SDS011;68858;48.642;9.142;2023-07-20T07:31:22;2.43;;;2.10;;
79403;SDS011;68858;48.642;9.142;2023-07-20T07:33:50;3.67;;;2.40;;
79403;SDS011;68858;48.642;9.142;2023-07-20T07:36:15;4.20;;;2.77;;
79403;SDS011;68858;48.642;9.142;2023-07-20T07:38:40;3.97;;;2.50;;
79403;SDS011;68858;48.642;9.142;2023-07-20T07:41:06;3.83;;;2.30;;
79403;SDS011;68858;48.642;9.142;2023-07-20T07:43:31;3.40;;;2.57;;
79403;SDS011;68858;48.642;9.142;2023-07-20T07:45:56;3.60;;;2.60;;
79403;SDS011;68858;48.642;9.142;2023-07-20T07:48:22;5.10;;;2.30;;
79403;SDS011;68858;48.642;9.142;2023-07-20T07:50:48;5.20;;;2.73;;
79403;SDS011;68858;48.642;9.142;2023-07-20T07:53:14;6.47;;;2.37;;
79403;SDS011;68858;48.642;9.142;2023-07-20T07:55:40;3.40;;;2.30;;
79403;SDS011;68858;48.642;9.142;2023-07-20T07:58:06;3.40;;;2.50;;
79403;SDS011;68858;48.642;9.142;2023-07-20T08:00:31;7.70;;;2.87;;
79403;SDS011;68858;48.642;9.142;2023-07-20T08:02:56;4.30;;;2.30;;
79403;SDS011;68858;48.642;9.142;2023-07-20T08:05:22;5.50;;;3.00;;
79403;SDS011;68858;48.642;9.142;2023-07-20T08:07:47;3.90;;;2.70;;
79403;SDS011;68858;48.642;9.142;2023-07-20T08:10:12;3.67;;;2.70;;
79403;SDS011;68858;48.642;9.142;2023-07-20T08:12:38;5.87;;;2.70;;
79403;SDS011;68858;48.642;9.142;2023-07-20T08:15:03;3.33;;;2.83;;
79403;SDS011;68858;48.642;9.142;2023-07-20T08:17:29;4.27;;;2.70;;
79403;SDS011;68858;48.642;9.142;2023-07-20T08:19:54;3.53;;;2.50;;
79403;SDS011;68858;48.642;9.142;2023-07-20T08:22:19;3.37;;;2.60;;
79403;SDS011;68858;48.642;9.142;2023-07-20T08:24:45;5.73;;;2.93;;
79403;SDS011;68858;48.642;9.142;2023-07-20T08:27:10;5.20;;;2.80;;
79403;SDS011;68858;48.642;9.142;2023-07-20T08:29:36;4.30;;;3.20;;
79403;SDS011;68858;48.642;9.142;2023-07-20T08:32:02;5.20;;;2.97;;
79403;SDS011;68858;48.642;9.142;2023-07-20T08:34:29;4.50;;;2.93;;
79403;SDS011;68858;48.642;9.142;2023-07-20T08:36:54;3.10;;;2.80;;
79403;SDS011;68858;48.642;9.142;2023-07-20T08:39:21;4.77;;;2.97;;
79403;SDS011;68858;48.642;9.142;2023-07-20T08:41:47;4.23;;;2.73;;
79403;SDS011;68858;48.642;9.142;2023-07-20T08:44:13;2.90;;;2.53;;
79403;SDS011;68858;48.642;9.142;2023-07-20T08:46:39;4.87;;;2.67;;
79403;SDS011;68858;48.642;9.142;2023-07-20T08:49:06;2.90;;;2.60;;
79403;SDS011;68858;48.642;9.142;2023-07-20T08:51:31;5.17;;;2.77;;
79403;SDS011;68858;48.642;9.142;2023-07-20T08:53:58;4.03;;;3.00;;
79403;SDS011;68858;48.642;9.142;2023-07-20T08:56:24;6.20;;;2.73;;
79403;SDS011;68858;48.642;9.142;2023-07-20T08:58:51;3.23;;;2.57;;
79403;SDS011;68858;48.642;9.142;2023-07-20T09:01:17;3.60;;;2.20;;
79403;SDS011;68858;48.642;9.142;2023-07-20T09:03:43;4.07;;;2.23;;
79403;SDS011;68858;48.642;9.142;2023-07-20T09:06:10;4.37;;;2.30;;
79403;SDS011;68858;48.642;9.142;2023-07-20T09:08:39;4.67;;;2.30;;
79403;SDS011;68858;48.642;9.142;2023-07-20T09:11:05;3.10;;;2.13;;
79403;SDS011;68858;48.642;9.142;2023-07-20T09:13:32;2.63;;;2.27;;
79403;SDS011;68858;48.642;9.142;2023-07-20T09:15:58;3.23;;;2.33;;
79403;SDS011;68858;48.642;9.142;2023-07-20T09:18:24;3.77;;;2.83;;
79403;SDS011;68858;48.642;9.142;2023-07-20T09:20:51;2.13;;;1.93;;
79403;SDS011;68858;48.642;9.142;2023-07-20T09:23:16;4.97;;;2.20;;
79403;SDS011;68858;48.642;9.142;2023-07-20T09:25:42;2.50;;;1.97;;
79403;SDS011;68858;48.642;9.142;2023-07-20T09:28:07;2.60;;;2.40;;
79403;SDS011;68858;48.642;9.142;2023-07-20T09:30:33;2.67;;;1.97;;
79403;SDS011;68858;48.642;9.142;2023-07-20T09:32:58;2.30;;;2.10;;
79403;SDS011;68858;48.642;9.142;2023-07-20T09:35:24;2.78;;;1.98;;
79403;SDS011;68858;48.642;9.142;2023-07-20T09:37:50;2.50;;;2.07;;
79403;SDS011;68858;48.642;9.142;2023-07-20T09:40:20;4.82;;;1.88;;
79403;SDS011;68858;48.642;9.142;2023-07-20T09:42:46;3.80;;;1.90;;
79403;SDS011;68858;48.642;9.142;2023-07-20T09:45:12;3.08;;;2.30;;
79403;SDS011;68858;48.642;9.142;2023-07-20T09:47:38;3.40;;;1.70;;
79403;SDS011;68858;48.642;9.142;2023-07-20T09:50:04;2.42;;;1.90;;
79403;SDS011;68858;48.642;9.142;2023-07-20T09:52:35;2.58;;;1.92;;
79403;SDS011;68858;48.642;9.142;2023-07-20T09:55:01;1.90;;;1.70;;
79403;SDS011;68858;48.642;9.142;2023-07-20T09:57:27;2.20;;;1.80;;
79403;SDS011;68858;48.642;9.142;2023-07-20T09:59:54;3.40;;;1.80;;
79403;SDS011;68858;48.642;9.142;2023-07-20T10:02:25;3.43;;;1.73;;
79403;SDS011;68858;48.642;9.142;2023-07-20T10:04:51;2.23;;;1.77;;
79403;SDS011;68858;48.642;9.142;2023-07-20T10:07:19;4.03;;;1.83;;
79403;SDS011;68858;48.642;9.142;2023-07-20T10:09:46;2.10;;;1.90;;
79403;SDS011;68858;48.642;9.142;2023-07-20T10:12:13;4.50;;;2.30;;
79403;SDS011;68858;48.642;9.142;2023-07-20T10:14:41;2.70;;;2.10;;
79403;SDS011;68858;48.642;9.142;2023-07-20T10:17:09;2.37;;;1.80;;
79403;SDS011;68858;48.642;9.142;2023-07-20T10:19:41;4.80;;;2.10;;
79403;SDS011;68858;48.642;9.142;2023-07-20T10:22:14;1.90;;;1.80;;
79403;SDS011;68858;48.642;9.142;2023-07-20T10:24:46;2.70;;;1.73;;
79403;SDS011;68858;48.642;9.142;2023-07-20T10:27:12;2.28;;;1.80;;
79403;SDS011;68858;48.642;9.142;2023-07-20T10:29:39;2.60;;;1.60;;
79403;SDS011;68858;48.642;9.142;2023-07-20T10:32:05;3.13;;;1.70;;
79403;SDS011;68858;48.642;9.142;2023-07-20T10:34:31;2.42;;;1.58;;
79403;SDS011;68858;48.642;9.142;2023-07-20T10:36:57;2.08;;;1.88;;
79403;SDS011;68858;48.642;9.142;2023-07-20T10:39:26;2.30;;;1.70;;
79403;SDS011;68858;48.642;9.142;2023-07-20T10:42:31;2.92;;;1.75;;
79403;SDS011;68858;48.642;9.142;2023-07-20T10:44:44;2.95;;;1.83;;
79403;SDS011;68858;48.642;9.142;2023-07-20T10:47:12;3.15;;;1.60;;
79403;SDS011;68858;48.642;9.142;2023-07-20T10:52:25;5.13;;;1.77;;
79403;SDS011;68858;48.642;9.142;2023-07-20T10:54:51;1.95;;;1.40;;
79403;SDS011;68858;48.642;9.142;2023-07-20T10:57:37;2.22;;;1.38;;
79403;SDS011;68858;48.642;9.142;2023-07-20T11:00:11;1.55;;;1.42;;
79403;SDS011;68858;48.642;9.142;2023-07-20T11:02:46;3.13;;;1.60;;
79403;SDS011;68858;48.642;9.142;2023-07-20T11:08:04;4.00;;;1.40;;
79403;SDS011;68858;48.642;9.142;2023-07-20T11:10:30;3.05;;;1.60;;
79403;SDS011;68858;48.642;9.142;2023-07-20T11:18:22;1.58;;;1.48;;
79403;SDS011;68858;48.642;9.142;2023-07-20T11:20:50;2.88;;;1.45;;
79403;SDS011;68858;48.642;9.142;2023-07-20T11:23:16;1.40;;;1.30;;
79403;SDS011;68858;48.642;9.142;2023-07-20T11:25:46;2.22;;;1.60;;
79403;SDS011;68858;48.642;9.142;2023-07-20T11:28:12;1.73;;;1.52;;
79403;SDS011;68858;48.642;9.142;2023-07-20T11:30:38;2.55;;;1.48;;
79403;SDS011;68858;48.642;9.142;2023-07-20T11:33:04;2.72;;;1.60;;
79403;SDS011;68858;48.642;9.142;2023-07-20T11:35:30;1.50;;;1.40;;
79403;SDS011;68858;48.642;9.142;2023-07-20T11:37:56;1.55;;;1.40;;
79403;SDS011;68858;48.642;9.142;2023-07-20T11:40:23;2.72;;;1.50;;
79403;SDS011;68858;48.642;9.142;2023-07-20T11:42:49;3.63;;;1.65;;
79403;SDS011;68858;48.642;9.142;2023-07-20T11:45:16;3.47;;;1.70;;
79403;SDS011;68858;48.642;9.142;2023-07-20T11:47:42;3.35;;;1.73;;
79403;SDS011;68858;48.642;9.142;2023-07-20T11:50:09;3.25;;;1.55;;
79403;SDS011;68858;48.642;9.142;2023-07-20T11:52:36;2.08;;;1.60;;
79403;SDS011;68858;48.642;9.142;2023-07-20T11:55:01;2.35;;;1.40;;
79403;SDS011;68858;48.642;9.142;2023-07-20T11:57:28;1.98;;;1.38;;
79403;SDS011;68858;48.642;9.142;2023-07-20T11:59:53;1.90;;;1.63;;
79403;SDS011;68858;48.642;9.142;2023-07-20T12:02:22;3.05;;;1.38;;
79403;SDS011;68858;48.642;9.142;2023-07-20T12:04:50;3.63;;;1.55;;
79403;SDS011;68858;48.642;9.142;2023-07-20T12:07:21;4.95;;;1.60;;
79403;SDS011;68858;48.642;9.142;2023-07-20T12:10:05;2.80;;;1.50;;
79403;SDS011;68858;48.642;9.142;2023-07-20T12:12:38;1.90;;;1.30;;
79403;SDS011;68858;48.642;9.142;2023-07-20T12:17:43;1.95;;;1.42;;
79403;SDS011;68858;48.642;9.142;2023-07-20T12:20:09;1.92;;;1.55;;
79403;SDS011;68858;48.642;9.142;2023-07-20T12:22:38;1.73;;;1.40;;
79403;SDS011;68858;48.642;9.142;2023-07-20T12:25:08;2.70;;;1.40;;
79403;SDS011;68858;48.642;9.142;2023-07-20T12:27:37;1.98;;;1.60;;
79403;SDS011;68858;48.642;9.142;2023-07-20T12:30:06;2.30;;;1.42;;
79403;SDS011;68858;48.642;9.142;2023-07-20T12:32:32;1.92;;;1.63;;
79403;SDS011;68858;48.642;9.142;2023-07-20T12:34:58;2.13;;;1.67;;
79403;SDS011;68858;48.642;9.142;2023-07-20T12:37:26;2.80;;;1.23;;
79403;SDS011;68858;48.642;9.142;2023-07-20T12:39:51;2.75;;;1.58;;
79403;SDS011;68858;48.642;9.142;2023-07-20T12:42:17;1.48;;;1.38;;
79403;SDS011;68858;48.642;9.142;2023-07-20T12:44:42;3.03;;;1.55;;
79403;SDS011;68858;48.642;9.142;2023-07-20T12:47:07;1.98;;;1.60;;
79403;SDS011;68858;48.642;9.142;2023-07-20T12:49:33;2.13;;;1.58;;
79403;SDS011;68858;48.642;9.142;2023-07-20T12:51:58;1.65;;;1.38;;
79403;SDS011;68858;48.642;9.142;2023-07-20T12:54:23;2.55;;;1.60;;
79403;SDS011;68858;48.642;9.142;2023-07-20T12:56:49;1.70;;;1.60;;
79403;SDS011;68858;48.642;9.142;2023-07-20T12:59:14;1.80;;;1.38;;
79403;SDS011;68858;48.642;9.142;2023-07-20T13:01:39;3.72;;;1.70;;
79403;SDS011;68858;48.642;9.142;2023-07-20T13:04:06;2.30;;;1.38;;
79403;SDS011;68858;48.642;9.142;2023-07-20T13:06:40;1.70;;;1.52;;
79403;SDS011;68858;48.642;9.142;2023-07-20T13:09:06;2.10;;;1.90;;
79403;SDS011;68858;48.642;9.142;2023-07-20T13:11:31;2.08;;;1.50;;
79403;SDS011;68858;48.642;9.142;2023-07-20T13:13:57;1.70;;;1.58;;
79403;SDS011;68858;48.642;9.142;2023-07-20T13:16:22;1.45;;;1.35;;
79403;SDS011;68858;48.642;9.142;2023-07-20T13:18:48;1.63;;;1.35;;
79403;SDS011;68858;48.642;9.142;2023-07-20T13:21:13;2.25;;;1.50;;
79403;SDS011;68858;48.642;9.142;2023-07-20T13:23:39;4.18;;;1.45;;
79403;SDS011;68858;48.642;9.142;2023-07-20T13:26:04;1.52;;;1.35;;
79403;SDS011;68858;48.642;9.142;2023-07-20T13:28:29;2.33;;;1.40;;
79403;SDS011;68858;48.642;9.142;2023-07-20T13:30:55;4.63;;;1.60;;
79403;SDS011;68858;48.642;9.142;2023-07-20T13:33:20;2.75;;;1.50;;
79403;SDS011;68858;48.642;9.142;2023-07-20T13:35:46;2.20;;;1.40;;
79403;SDS011;68858;48.642;9.142;2023-07-20T13:38:11;2.35;;;1.40;;
79403;SDS011;68858;48.642;9.142;2023-07-20T13:40:37;1.80;;;1.30;;
79403;SDS011;68858;48.642;9.142;2023-07-20T13:43:02;1.83;;;1.50;;
79403;SDS011;68858;48.642;9.142;2023-07-20T13:45:27;2.10;;;1.42;;
79403;SDS011;68858;48.642;9.142;2023-07-20T13:47:53;1.25;;;1.15;;
79403;SDS011;68858;48.642;9.142;2023-07-20T13:50:18;1.60;;;1.50;;
79403;SDS011;68858;48.642;9.142;2023-07-20T13:52:44;1.50;;;1.35;;
79403;SDS011;68858;48.642;9.142;2023-07-20T13:55:09;2.63;;;1.50;;
79403;SDS011;68858;48.642;9.142;2023-07-20T13:57:34;2.13;;;1.70;;
79403;SDS011;68858;48.642;9.142;2023-07-20T14:00:00;1.50;;;1.40;;
79403;SDS011;68858;48.642;9.142;2023-07-20T14:02:26;1.60;;;1.40;;
79403;SDS011;68858;48.642;9.142;2023-07-20T14:04:51;1.83;;;1.60;;
79403;SDS011;68858;48.642;9.142;2023-07-20T14:07:19;2.60;;;1.35;;
79403;SDS011;68858;48.642;9.142;2023-07-20T14:09:45;2.83;;;1.58;;
79403;SDS011;68858;48.642;9.142;2023-07-20T14:12:10;1.50;;;1.40;;
79403;SDS011;68858;48.642;9.142;2023-07-20T14:14:38;1.67;;;1.48;;
79403;SDS011;68858;48.642;9.142;2023-07-20T14:17:04;2.17;;;1.33;;
79403;SDS011;68858;48.642;9.142;2023-07-20T14:19:29;3.40;;;1.48;;
79403;SDS011;68858;48.642;9.142;2023-07-20T14:21:55;2.47;;;1.40;;
79403;SDS011;68858;48.642;9.142;2023-07-20T14:24:20;2.10;;;1.30;;
79403;SDS011;68858;48.642;9.142;2023-07-20T14:26:45;3.85;;;1.63;;
79403;SDS011;68858;48.642;9.142;2023-07-20T14:29:13;2.85;;;1.48;;
79403;SDS011;68858;48.642;9.142;2023-07-20T14:31:38;1.42;;;1.33;;
79403;SDS011;68858;48.642;9.142;2023-07-20T14:34:03;1.60;;;1.50;;
79403;SDS011;68858;48.642;9.142;2023-07-20T14:36:29;2.70;;;1.60;;
79403;SDS011;68858;48.642;9.142;2023-07-20T14:38:54;3.40;;;1.70;;
79403;SDS011;68858;48.642;9.142;2023-07-20T14:41:19;1.63;;;1.35;;
79403;SDS011;68858;48.642;9.142;2023-07-20T14:43:45;3.20;;;1.67;;
79403;SDS011;68858;48.642;9.142;2023-07-20T14:46:11;2.45;;;1.55;;
79403;SDS011;68858;48.642;9.142;2023-07-20T14:48:36;3.15;;;1.10;;
79403;SDS011;68858;48.642;9.142;2023-07-20T14:51:02;3.05;;;1.17;;
79403;SDS011;68858;48.642;9.142;2023-07-20T14:53:27;1.65;;;1.35;;
79403;SDS011;68858;48.642;9.142;2023-07-20T14:55:57;2.67;;;1.60;;
79403;SDS011;68858;48.642;9.142;2023-07-20T14:58:23;4.03;;;1.70;;
79403;SDS011;68858;48.642;9.142;2023-07-20T15:00:49;2.58;;;1.67;;
79403;SDS011;68858;48.642;9.142;2023-07-20T15:03:15;2.85;;;1.70;;
79403;SDS011;68858;48.642;9.142;2023-07-20T15:05:40;3.17;;;1.48;;